sensor_id;sensor_type;location;lat;lon;timestamp;P1;durP1;ratioP1;P2;durP2;ratioP2
80247;SDS011;69560;52.206;21.018;2024-01-25T00:02:01;10.30;;;3.00;;
80247;SDS011;69560;52.206;21.018;2024-01-25T00:04:29;12.10;;;2.80;;
80247;SDS011;69560;52.206;21.018;2024-01-25T00:06:55;9.80;;;2.70;;
80247;SDS011;69560;52.206;21.018;2024-01-25T00:09:22;11.30;;;2.70;;
80247;SDS011;69560;52.206;21.018;2024-01-25T00:11:48;8.30;;;2.30;;
80247;SDS011;69560;52.206;21.018;2024-01-25T00:14:15;11.00;;;2.50;;
80247;SDS011;69560;52.206;21.018;2024-01-25T00:16:41;9.50;;;2.70;;
80247;SDS011;69560;52.206;21.018;2024-01-25T00:19:08;11.10;;;3.00;;
80247;SDS011;69560;52.206;21.018;2024-01-25T00:21:35;6.80;;;2.10;;
80247;SDS011;69560;52.206;21.018;2024-01-25T00:24:08;9.60;;;2.10;;
80247;SDS011;69560;52.206;21.018;2024-01-25T00:26:34;5.50;;;1.80;;
80247;SDS011;69560;52.206;21.018;2024-01-25T00:29:01;7.90;;;1.80;;
80247;SDS011;69560;52.206;21.018;2024-01-25T00:31:28;6.50;;;1.60;;
80247;SDS011;69560;52.206;21.018;2024-01-25T00:33:54;3.90;;;1.70;;
80247;SDS011;69560;52.206;21.018;2024-01-25T00:36:22;5.10;;;1.60;;
80247;SDS011;69560;52.206;21.018;2024-01-25T00:38:49;6.90;;;1.80;;
80247;SDS011;69560;52.206;21.018;2024-01-25T00:41:17;5.20;;;1.60;;
80247;SDS011;69560;52.206;21.018;2024-01-25T00:43:45;7.70;;;1.80;;
80247;SDS011;69560;52.206;21.018;2024-01-25T00:46:12;5.20;;;2.10;;
80247;SDS011;69560;52.206;21.018;2024-01-25T00:48:40;4.10;;;1.70;;
80247;SDS011;69560;52.206;21.018;2024-01-25T00:51:08;6.70;;;2.10;;
80247;SDS011;69560;52.206;21.018;2024-01-25T00:53:42;7.80;;;2.30;;
80247;SDS011;69560;52.206;21.018;2024-01-25T00:56:09;4.90;;;2.90;;
80247;SDS011;69560;52.206;21.018;2024-01-25T00:58:36;7.20;;;2.30;;
80247;SDS011;69560;52.206;21.018;2024-01-25T01:01:03;8.30;;;2.20;;
80247;SDS011;69560;52.206;21.018;2024-01-25T01:03:30;7.80;;;2.30;;
80247;SDS011;69560;52.206;21.018;2024-01-25T01:05:57;7.70;;;2.20;;
80247;SDS011;69560;52.206;21.018;2024-01-25T01:08:24;8.40;;;2.60;;
80247;SDS011;69560;52.206;21.018;2024-01-25T01:10:52;7.20;;;2.60;;
80247;SDS011;69560;52.206;21.018;2024-01-25T01:13:18;5.30;;;2.00;;
80247;SDS011;69560;52.206;21.018;2024-01-25T01:15:45;7.70;;;2.50;;
80247;SDS011;69560;52.206;21.018;2024-01-25T01:18:12;9.70;;;2.60;;
80247;SDS011;69560;52.206;21.018;2024-01-25T01:20:38;6.90;;;2.20;;
80247;SDS011;69560;52.206;21.018;2024-01-25T01:23:04;13.80;;;2.70;;
80247;SDS011;69560;52.206;21.018;2024-01-25T01:25:31;8.10;;;2.40;;
80247;SDS011;69560;52.206;21.018;2024-01-25T01:27:57;9.70;;;2.30;;
80247;SDS011;69560;52.206;21.018;2024-01-25T01:30:24;10.30;;;2.60;;
80247;SDS011;69560;52.206;21.018;2024-01-25T01:32:50;9.00;;;2.40;;
80247;SDS011;69560;52.206;21.018;2024-01-25T01:35:16;7.30;;;2.40;;
80247;SDS011;69560;52.206;21.018;2024-01-25T01:37:43;11.90;;;2.90;;
80247;SDS011;69560;52.206;21.018;2024-01-25T01:40:12;9.50;;;2.60;;
80247;SDS011;69560;52.206;21.018;2024-01-25T01:42:39;9.90;;;2.30;;
80247;SDS011;69560;52.206;21.018;2024-01-25T01:45:06;6.90;;;2.60;;
80247;SDS011;69560;52.206;21.018;2024-01-25T01:47:33;6.10;;;2.00;;
80247;SDS011;69560;52.206;21.018;2024-01-25T01:49:59;8.40;;;2.50;;
80247;SDS011;69560;52.206;21.018;2024-01-25T01:52:26;8.00;;;2.10;;
80247;SDS011;69560;52.206;21.018;2024-01-25T01:54:52;9.70;;;2.50;;
80247;SDS011;69560;52.206;21.018;2024-01-25T01:57:19;11.30;;;2.80;;
80247;SDS011;69560;52.206;21.018;2024-01-25T01:59:46;8.40;;;2.40;;
80247;SDS011;69560;52.206;21.018;2024-01-25T02:02:13;7.00;;;2.30;;
80247;SDS011;69560;52.206;21.018;2024-01-25T02:04:43;11.10;;;2.30;;
80247;SDS011;69560;52.206;21.018;2024-01-25T02:07:10;11.40;;;2.70;;
80247;SDS011;69560;52.206;21.018;2024-01-25T02:09:37;9.30;;;2.50;;
80247;SDS011;69560;52.206;21.018;2024-01-25T02:12:04;10.30;;;2.60;;
80247;SDS011;69560;52.206;21.018;2024-01-25T02:14:31;9.70;;;2.70;;
80247;SDS011;69560;52.206;21.018;2024-01-25T02:16:57;7.50;;;1.70;;
80247;SDS011;69560;52.206;21.018;2024-01-25T02:19:24;8.30;;;2.10;;
80247;SDS011;69560;52.206;21.018;2024-01-25T02:21:51;10.70;;;2.50;;
80247;SDS011;69560;52.206;21.018;2024-01-25T02:24:20;9.50;;;3.10;;
80247;SDS011;69560;52.206;21.018;2024-01-25T02:26:46;11.00;;;2.60;;
80247;SDS011;69560;52.206;21.018;2024-01-25T02:29:13;9.90;;;2.70;;
80247;SDS011;69560;52.206;21.018;2024-01-25T02:31:39;11.90;;;2.50;;
80247;SDS011;69560;52.206;21.018;2024-01-25T02:34:08;13.30;;;2.30;;
80247;SDS011;69560;52.206;21.018;2024-01-25T02:36:34;9.20;;;2.20;;
80247;SDS011;69560;52.206;21.018;2024-01-25T02:39:01;9.30;;;2.60;;
80247;SDS011;69560;52.206;21.018;2024-01-25T02:41:31;15.60;;;3.90;;
80247;SDS011;69560;52.206;21.018;2024-01-25T02:43:59;7.80;;;2.50;;
80247;SDS011;69560;52.206;21.018;2024-01-25T02:46:26;8.00;;;2.30;;
80247;SDS011;69560;52.206;21.018;2024-01-25T02:48:52;10.80;;;2.40;;
80247;SDS011;69560;52.206;21.018;2024-01-25T02:51:19;8.20;;;2.20;;
80247;SDS011;69560;52.206;21.018;2024-01-25T02:53:45;14.30;;;3.30;;
80247;SDS011;69560;52.206;21.018;2024-01-25T02:56:12;11.00;;;2.70;;
80247;SDS011;69560;52.206;21.018;2024-01-25T02:58:38;12.10;;;2.40;;
80247;SDS011;69560;52.206;21.018;2024-01-25T03:01:04;10.40;;;2.50;;
80247;SDS011;69560;52.206;21.018;2024-01-25T03:03:31;11.00;;;2.80;;
80247;SDS011;69560;52.206;21.018;2024-01-25T03:05:57;9.70;;;2.80;;
80247;SDS011;69560;52.206;21.018;2024-01-25T03:08:24;9.50;;;2.30;;
80247;SDS011;69560;52.206;21.018;2024-01-25T03:10:50;8.50;;;2.20;;
80247;SDS011;69560;52.206;21.018;2024-01-25T03:13:17;9.00;;;2.70;;
80247;SDS011;69560;52.206;21.018;2024-01-25T03:15:43;9.60;;;2.30;;
80247;SDS011;69560;52.206;21.018;2024-01-25T03:18:10;14.40;;;3.00;;
80247;SDS011;69560;52.206;21.018;2024-01-25T03:20:36;11.60;;;2.90;;
80247;SDS011;69560;52.206;21.018;2024-01-25T03:23:03;10.00;;;2.30;;
80247;SDS011;69560;52.206;21.018;2024-01-25T03:25:30;9.00;;;3.10;;
80247;SDS011;69560;52.206;21.018;2024-01-25T03:27:57;10.20;;;3.00;;
80247;SDS011;69560;52.206;21.018;2024-01-25T03:30:24;9.50;;;2.80;;
80247;SDS011;69560;52.206;21.018;2024-01-25T03:32:50;13.90;;;2.60;;
80247;SDS011;69560;52.206;21.018;2024-01-25T03:35:17;11.20;;;2.40;;
80247;SDS011;69560;52.206;21.018;2024-01-25T03:37:43;10.80;;;2.60;;
80247;SDS011;69560;52.206;21.018;2024-01-25T03:40:10;8.40;;;2.20;;
80247;SDS011;69560;52.206;21.018;2024-01-25T03:42:36;12.20;;;2.50;;
80247;SDS011;69560;52.206;21.018;2024-01-25T03:45:03;8.00;;;2.20;;
80247;SDS011;69560;52.206;21.018;2024-01-25T03:47:30;10.40;;;2.50;;
80247;SDS011;69560;52.206;21.018;2024-01-25T03:49:56;9.90;;;2.30;;
80247;SDS011;69560;52.206;21.018;2024-01-25T03:52:23;12.00;;;2.60;;
80247;SDS011;69560;52.206;21.018;2024-01-25T03:54:49;9.10;;;2.40;;
80247;SDS011;69560;52.206;21.018;2024-01-25T03:57:16;9.90;;;2.40;;
80247;SDS011;69560;52.206;21.018;2024-01-25T03:59:42;7.80;;;2.20;;
80247;SDS011;69560;52.206;21.018;2024-01-25T04:02:12;10.10;;;2.70;;
80247;SDS011;69560;52.206;21.018;2024-01-25T04:04:38;10.80;;;2.40;;
80247;SDS011;69560;52.206;21.018;2024-01-25T04:07:05;11.70;;;3.00;;
80247;SDS011;69560;52.206;21.018;2024-01-25T04:09:31;11.40;;;3.00;;
80247;SDS011;69560;52.206;21.018;2024-01-25T04:11:57;13.40;;;3.20;;
80247;SDS011;69560;52.206;21.018;2024-01-25T04:14:24;10.50;;;2.70;;
80247;SDS011;69560;52.206;21.018;2024-01-25T04:16:50;11.40;;;2.80;;
80247;SDS011;69560;52.206;21.018;2024-01-25T04:19:17;11.60;;;2.90;;
80247;SDS011;69560;52.206;21.018;2024-01-25T04:21:46;13.30;;;2.90;;
80247;SDS011;69560;52.206;21.018;2024-01-25T04:24:12;9.80;;;2.80;;
80247;SDS011;69560;52.206;21.018;2024-01-25T04:26:39;9.40;;;2.80;;
80247;SDS011;69560;52.206;21.018;2024-01-25T04:29:05;14.10;;;2.80;;
80247;SDS011;69560;52.206;21.018;2024-01-25T04:31:33;10.60;;;3.10;;
80247;SDS011;69560;52.206;21.018;2024-01-25T04:33:59;9.50;;;2.30;;
80247;SDS011;69560;52.206;21.018;2024-01-25T04:36:25;7.60;;;2.40;;
80247;SDS011;69560;52.206;21.018;2024-01-25T04:38:52;8.20;;;2.10;;
80247;SDS011;69560;52.206;21.018;2024-01-25T04:41:18;9.30;;;2.60;;
80247;SDS011;69560;52.206;21.018;2024-01-25T04:43:45;12.70;;;2.80;;
80247;SDS011;69560;52.206;21.018;2024-01-25T04:46:12;8.00;;;2.50;;
80247;SDS011;69560;52.206;21.018;2024-01-25T04:48:38;7.60;;;1.80;;
80247;SDS011;69560;52.206;21.018;2024-01-25T04:51:05;10.60;;;2.60;;
80247;SDS011;69560;52.206;21.018;2024-01-25T04:53:33;6.20;;;2.40;;
80247;SDS011;69560;52.206;21.018;2024-01-25T04:55:59;10.30;;;2.60;;
80247;SDS011;69560;52.206;21.018;2024-01-25T04:58:26;10.10;;;2.50;;
80247;SDS011;69560;52.206;21.018;2024-01-25T05:00:52;13.00;;;2.10;;
80247;SDS011;69560;52.206;21.018;2024-01-25T05:03:18;10.30;;;3.10;;
80247;SDS011;69560;52.206;21.018;2024-01-25T05:05:46;7.40;;;2.00;;
80247;SDS011;69560;52.206;21.018;2024-01-25T05:08:13;11.80;;;2.30;;
80247;SDS011;69560;52.206;21.018;2024-01-25T05:10:41;9.40;;;2.20;;
80247;SDS011;69560;52.206;21.018;2024-01-25T05:13:08;6.80;;;1.80;;
80247;SDS011;69560;52.206;21.018;2024-01-25T05:15:35;10.70;;;2.70;;
80247;SDS011;69560;52.206;21.018;2024-01-25T05:18:02;9.10;;;2.30;;
80247;SDS011;69560;52.206;21.018;2024-01-25T05:20:29;7.10;;;2.10;;
80247;SDS011;69560;52.206;21.018;2024-01-25T05:22:58;7.70;;;2.50;;
80247;SDS011;69560;52.206;21.018;2024-01-25T05:25:25;8.80;;;1.70;;
80247;SDS011;69560;52.206;21.018;2024-01-25T05:27:52;8.50;;;2.10;;
80247;SDS011;69560;52.206;21.018;2024-01-25T05:30:19;9.00;;;2.40;;
80247;SDS011;69560;52.206;21.018;2024-01-25T05:32:45;10.60;;;2.60;;
80247;SDS011;69560;52.206;21.018;2024-01-25T05:35:12;10.60;;;2.40;;
80247;SDS011;69560;52.206;21.018;2024-01-25T05:37:38;7.30;;;1.90;;
80247;SDS011;69560;52.206;21.018;2024-01-25T05:40:05;7.70;;;2.10;;
80247;SDS011;69560;52.206;21.018;2024-01-25T05:42:32;7.50;;;2.30;;
80247;SDS011;69560;52.206;21.018;2024-01-25T05:44:58;8.40;;;2.00;;
80247;SDS011;69560;52.206;21.018;2024-01-25T05:47:25;7.20;;;1.80;;
80247;SDS011;69560;52.206;21.018;2024-01-25T05:49:51;7.60;;;1.90;;
80247;SDS011;69560;52.206;21.018;2024-01-25T05:52:18;11.50;;;2.60;;
80247;SDS011;69560;52.206;21.018;2024-01-25T05:54:44;13.30;;;2.80;;
80247;SDS011;69560;52.206;21.018;2024-01-25T05:57:13;6.50;;;2.10;;
80247;SDS011;69560;52.206;21.018;2024-01-25T05:59:40;8.40;;;2.30;;
80247;SDS011;69560;52.206;21.018;2024-01-25T06:02:07;5.60;;;2.00;;
80247;SDS011;69560;52.206;21.018;2024-01-25T06:04:34;7.90;;;2.10;;
80247;SDS011;69560;52.206;21.018;2024-01-25T06:07:01;9.60;;;2.30;;
80247;SDS011;69560;52.206;21.018;2024-01-25T06:09:27;10.80;;;2.80;;
80247;SDS011;69560;52.206;21.018;2024-01-25T06:11:54;9.40;;;2.60;;
80247;SDS011;69560;52.206;21.018;2024-01-25T06:14:20;10.10;;;2.40;;
80247;SDS011;69560;52.206;21.018;2024-01-25T06:16:47;9.40;;;2.70;;
80247;SDS011;69560;52.206;21.018;2024-01-25T06:19:14;9.60;;;2.20;;
80247;SDS011;69560;52.206;21.018;2024-01-25T06:21:40;8.20;;;2.40;;
80247;SDS011;69560;52.206;21.018;2024-01-25T06:24:07;6.00;;;1.90;;
80247;SDS011;69560;52.206;21.018;2024-01-25T06:26:33;10.90;;;2.50;;
80247;SDS011;69560;52.206;21.018;2024-01-25T06:29:00;11.60;;;2.60;;
80247;SDS011;69560;52.206;21.018;2024-01-25T06:31:26;10.60;;;2.40;;
80247;SDS011;69560;52.206;21.018;2024-01-25T06:33:53;6.70;;;1.90;;
80247;SDS011;69560;52.206;21.018;2024-01-25T06:36:20;5.90;;;1.80;;
80247;SDS011;69560;52.206;21.018;2024-01-25T06:38:50;10.60;;;2.70;;
80247;SDS011;69560;52.206;21.018;2024-01-25T06:41:19;6.60;;;1.90;;
80247;SDS011;69560;52.206;21.018;2024-01-25T06:43:46;7.50;;;2.00;;
80247;SDS011;69560;52.206;21.018;2024-01-25T06:46:12;11.50;;;2.50;;
80247;SDS011;69560;52.206;21.018;2024-01-25T06:48:38;10.80;;;2.60;;
80247;SDS011;69560;52.206;21.018;2024-01-25T06:51:05;7.80;;;2.10;;
80247;SDS011;69560;52.206;21.018;2024-01-25T06:53:31;6.10;;;1.80;;
80247;SDS011;69560;52.206;21.018;2024-01-25T06:55:58;10.50;;;2.50;;
80247;SDS011;69560;52.206;21.018;2024-01-25T06:58:25;8.10;;;2.60;;
80247;SDS011;69560;52.206;21.018;2024-01-25T07:00:51;8.00;;;2.30;;
80247;SDS011;69560;52.206;21.018;2024-01-25T07:03:19;11.00;;;2.80;;
80247;SDS011;69560;52.206;21.018;2024-01-25T07:05:45;8.90;;;2.50;;
80247;SDS011;69560;52.206;21.018;2024-01-25T07:08:12;14.00;;;2.50;;
80247;SDS011;69560;52.206;21.018;2024-01-25T07:10:40;12.20;;;3.60;;
80247;SDS011;69560;52.206;21.018;2024-01-25T07:13:06;9.30;;;2.30;;
80247;SDS011;69560;52.206;21.018;2024-01-25T07:15:33;6.70;;;2.10;;
80247;SDS011;69560;52.206;21.018;2024-01-25T07:17:59;7.50;;;2.50;;
80247;SDS011;69560;52.206;21.018;2024-01-25T07:20:26;8.20;;;2.50;;
80247;SDS011;69560;52.206;21.018;2024-01-25T07:22:52;7.70;;;2.30;;
80247;SDS011;69560;52.206;21.018;2024-01-25T07:25:19;9.60;;;2.50;;
80247;SDS011;69560;52.206;21.018;2024-01-25T07:27:45;9.40;;;2.10;;
80247;SDS011;69560;52.206;21.018;2024-01-25T07:30:13;8.00;;;1.80;;
80247;SDS011;69560;52.206;21.018;2024-01-25T07:32:40;3.90;;;1.50;;
80247;SDS011;69560;52.206;21.018;2024-01-25T07:35:08;7.70;;;2.20;;
80247;SDS011;69560;52.206;21.018;2024-01-25T07:37:38;7.80;;;2.10;;
80247;SDS011;69560;52.206;21.018;2024-01-25T07:40:07;9.10;;;2.80;;
80247;SDS011;69560;52.206;21.018;2024-01-25T07:42:35;10.20;;;2.70;;
80247;SDS011;69560;52.206;21.018;2024-01-25T07:45:01;5.60;;;2.20;;
80247;SDS011;69560;52.206;21.018;2024-01-25T07:47:28;6.10;;;1.80;;
80247;SDS011;69560;52.206;21.018;2024-01-25T07:49:54;6.20;;;2.10;;
80247;SDS011;69560;52.206;21.018;2024-01-25T07:52:21;8.30;;;2.40;;
80247;SDS011;69560;52.206;21.018;2024-01-25T07:54:47;7.30;;;2.40;;
80247;SDS011;69560;52.206;21.018;2024-01-25T07:57:16;6.90;;;2.20;;
80247;SDS011;69560;52.206;21.018;2024-01-25T07:59:43;6.70;;;2.00;;
80247;SDS011;69560;52.206;21.018;2024-01-25T08:02:09;7.40;;;2.20;;
80247;SDS011;69560;52.206;21.018;2024-01-25T08:04:36;6.70;;;1.90;;
80247;SDS011;69560;52.206;21.018;2024-01-25T08:07:02;5.70;;;2.00;;
80247;SDS011;69560;52.206;21.018;2024-01-25T08:09:29;6.70;;;2.10;;
80247;SDS011;69560;52.206;21.018;2024-01-25T08:11:55;8.10;;;2.40;;
80247;SDS011;69560;52.206;21.018;2024-01-25T08:14:22;9.40;;;2.20;;
80247;SDS011;69560;52.206;21.018;2024-01-25T08:16:51;4.60;;;1.60;;
80247;SDS011;69560;52.206;21.018;2024-01-25T08:19:18;7.30;;;2.00;;
80247;SDS011;69560;52.206;21.018;2024-01-25T08:21:45;8.20;;;2.20;;
80247;SDS011;69560;52.206;21.018;2024-01-25T08:24:12;6.00;;;1.80;;
80247;SDS011;69560;52.206;21.018;2024-01-25T08:26:39;8.10;;;1.60;;
80247;SDS011;69560;52.206;21.018;2024-01-25T08:29:05;5.80;;;1.60;;
80247;SDS011;69560;52.206;21.018;2024-01-25T08:31:32;5.20;;;2.40;;
80247;SDS011;69560;52.206;21.018;2024-01-25T08:33:58;3.50;;;1.80;;
80247;SDS011;69560;52.206;21.018;2024-01-25T08:36:25;4.50;;;1.50;;
80247;SDS011;69560;52.206;21.018;2024-01-25T08:38:52;2.10;;;1.30;;
80247;SDS011;69560;52.206;21.018;2024-01-25T08:41:18;1.80;;;1.00;;
80247;SDS011;69560;52.206;21.018;2024-01-25T08:43:47;3.40;;;1.20;;
80247;SDS011;69560;52.206;21.018;2024-01-25T08:46:14;4.30;;;1.50;;
80247;SDS011;69560;52.206;21.018;2024-01-25T08:48:41;4.40;;;1.70;;
80247;SDS011;69560;52.206;21.018;2024-01-25T08:51:08;3.30;;;1.40;;
80247;SDS011;69560;52.206;21.018;2024-01-25T08:53:35;1.50;;;1.00;;
80247;SDS011;69560;52.206;21.018;2024-01-25T08:56:01;2.60;;;1.30;;
80247;SDS011;69560;52.206;21.018;2024-01-25T08:58:28;1.30;;;0.80;;
80247;SDS011;69560;52.206;21.018;2024-01-25T09:00:54;3.30;;;1.20;;
80247;SDS011;69560;52.206;21.018;2024-01-25T09:03:21;2.50;;;1.00;;
80247;SDS011;69560;52.206;21.018;2024-01-25T09:05:48;3.20;;;1.30;;
80247;SDS011;69560;52.206;21.018;2024-01-25T09:08:15;2.60;;;1.20;;
80247;SDS011;69560;52.206;21.018;2024-01-25T09:10:41;2.20;;;1.00;;
80247;SDS011;69560;52.206;21.018;2024-01-25T09:13:08;3.10;;;1.00;;
80247;SDS011;69560;52.206;21.018;2024-01-25T09:15:35;2.50;;;1.10;;
80247;SDS011;69560;52.206;21.018;2024-01-25T09:18:02;1.80;;;1.00;;
80247;SDS011;69560;52.206;21.018;2024-01-25T09:20:29;4.20;;;1.40;;
80247;SDS011;69560;52.206;21.018;2024-01-25T09:22:56;2.40;;;1.10;;
80247;SDS011;69560;52.206;21.018;2024-01-25T09:25:23;2.50;;;1.30;;
80247;SDS011;69560;52.206;21.018;2024-01-25T09:27:50;1.60;;;1.30;;
80247;SDS011;69560;52.206;21.018;2024-01-25T09:30:17;2.90;;;1.30;;
80247;SDS011;69560;52.206;21.018;2024-01-25T09:32:44;2.80;;;1.60;;
80247;SDS011;69560;52.206;21.018;2024-01-25T09:35:10;2.50;;;1.40;;
80247;SDS011;69560;52.206;21.018;2024-01-25T09:37:37;1.80;;;1.20;;
80247;SDS011;69560;52.206;21.018;2024-01-25T09:40:04;2.10;;;1.20;;
80247;SDS011;69560;52.206;21.018;2024-01-25T09:42:31;5.10;;;1.50;;
80247;SDS011;69560;52.206;21.018;2024-01-25T09:44:58;2.30;;;1.30;;
80247;SDS011;69560;52.206;21.018;2024-01-25T09:47:25;3.10;;;1.50;;
80247;SDS011;69560;52.206;21.018;2024-01-25T09:49:51;2.70;;;1.30;;
80247;SDS011;69560;52.206;21.018;2024-01-25T09:52:18;2.50;;;1.50;;
80247;SDS011;69560;52.206;21.018;2024-01-25T09:54:52;2.10;;;1.20;;
80247;SDS011;69560;52.206;21.018;2024-01-25T09:57:20;2.20;;;1.20;;
80247;SDS011;69560;52.206;21.018;2024-01-25T09:59:50;4.00;;;1.90;;
80247;SDS011;69560;52.206;21.018;2024-01-25T10:02:19;2.30;;;1.30;;
80247;SDS011;69560;52.206;21.018;2024-01-25T10:04:49;2.20;;;1.50;;
80247;SDS011;69560;52.206;21.018;2024-01-25T10:10:09;2.50;;;1.50;;
80247;SDS011;69560;52.206;21.018;2024-01-25T10:12:37;1.50;;;1.20;;
80247;SDS011;69560;52.206;21.018;2024-01-25T10:15:04;2.40;;;1.30;;
80247;SDS011;69560;52.206;21.018;2024-01-25T10:17:33;2.40;;;1.60;;
80247;SDS011;69560;52.206;21.018;2024-01-25T10:19:59;1.90;;;1.60;;
80247;SDS011;69560;52.206;21.018;2024-01-25T10:22:26;1.90;;;1.40;;
80247;SDS011;69560;52.206;21.018;2024-01-25T10:24:53;2.20;;;1.40;;
80247;SDS011;69560;52.206;21.018;2024-01-25T10:27:21;2.90;;;1.40;;
80247;SDS011;69560;52.206;21.018;2024-01-25T10:29:49;2.30;;;1.40;;
80247;SDS011;69560;52.206;21.018;2024-01-25T10:32:17;2.80;;;1.80;;
80247;SDS011;69560;52.206;21.018;2024-01-25T10:34:45;2.00;;;1.50;;
80247;SDS011;69560;52.206;21.018;2024-01-25T10:37:13;3.40;;;1.80;;
80247;SDS011;69560;52.206;21.018;2024-01-25T10:39:41;2.40;;;1.80;;
80247;SDS011;69560;52.206;21.018;2024-01-25T10:42:08;3.50;;;1.70;;
80247;SDS011;69560;52.206;21.018;2024-01-25T10:44:35;2.30;;;1.50;;
80247;SDS011;69560;52.206;21.018;2024-01-25T10:47:01;2.90;;;1.40;;
80247;SDS011;69560;52.206;21.018;2024-01-25T10:49:28;1.80;;;1.40;;
80247;SDS011;69560;52.206;21.018;2024-01-25T10:51:55;4.00;;;1.50;;
80247;SDS011;69560;52.206;21.018;2024-01-25T10:54:22;1.90;;;1.30;;
80247;SDS011;69560;52.206;21.018;2024-01-25T10:56:52;1.40;;;1.20;;
80247;SDS011;69560;52.206;21.018;2024-01-25T10:59:18;3.10;;;1.70;;
80247;SDS011;69560;52.206;21.018;2024-01-25T11:01:46;2.60;;;1.40;;
80247;SDS011;69560;52.206;21.018;2024-01-25T11:04:13;2.00;;;1.30;;
80247;SDS011;69560;52.206;21.018;2024-01-25T11:06:43;5.00;;;1.30;;
80247;SDS011;69560;52.206;21.018;2024-01-25T11:09:16;2.00;;;1.20;;
80247;SDS011;69560;52.206;21.018;2024-01-25T11:11:46;2.60;;;1.30;;
80247;SDS011;69560;52.206;21.018;2024-01-25T11:14:15;2.10;;;1.40;;
80247;SDS011;69560;52.206;21.018;2024-01-25T11:16:45;3.30;;;1.40;;
80247;SDS011;69560;52.206;21.018;2024-01-25T11:19:17;3.80;;;1.70;;
80247;SDS011;69560;52.206;21.018;2024-01-25T11:21:45;2.90;;;1.40;;
80247;SDS011;69560;52.206;21.018;2024-01-25T11:24:13;3.20;;;1.80;;
80247;SDS011;69560;52.206;21.018;2024-01-25T11:26:42;2.40;;;1.20;;
80247;SDS011;69560;52.206;21.018;2024-01-25T11:29:09;2.40;;;1.30;;
80247;SDS011;69560;52.206;21.018;2024-01-25T11:31:36;2.90;;;1.40;;
80247;SDS011;69560;52.206;21.018;2024-01-25T11:34:03;2.70;;;1.40;;
80247;SDS011;69560;52.206;21.018;2024-01-25T11:36:29;3.80;;;1.70;;
80247;SDS011;69560;52.206;21.018;2024-01-25T11:38:57;4.70;;;1.50;;
80247;SDS011;69560;52.206;21.018;2024-01-25T11:41:26;5.40;;;1.60;;
80247;SDS011;69560;52.206;21.018;2024-01-25T11:43:53;5.10;;;1.90;;
80247;SDS011;69560;52.206;21.018;2024-01-25T11:46:21;3.10;;;1.40;;
80247;SDS011;69560;52.206;21.018;2024-01-25T11:48:48;2.80;;;1.50;;
80247;SDS011;69560;52.206;21.018;2024-01-25T11:51:15;3.00;;;2.10;;
80247;SDS011;69560;52.206;21.018;2024-01-25T11:53:41;4.20;;;1.80;;
80247;SDS011;69560;52.206;21.018;2024-01-25T11:56:12;3.90;;;2.20;;
80247;SDS011;69560;52.206;21.018;2024-01-25T11:58:43;3.40;;;1.60;;
80247;SDS011;69560;52.206;21.018;2024-01-25T12:01:12;4.70;;;1.50;;
80247;SDS011;69560;52.206;21.018;2024-01-25T12:03:40;4.20;;;1.90;;
80247;SDS011;69560;52.206;21.018;2024-01-25T12:06:06;3.00;;;1.50;;
80247;SDS011;69560;52.206;21.018;2024-01-25T12:08:35;4.00;;;2.00;;
80247;SDS011;69560;52.206;21.018;2024-01-25T12:11:02;4.10;;;1.80;;
80247;SDS011;69560;52.206;21.018;2024-01-25T12:13:34;6.60;;;2.10;;
80247;SDS011;69560;52.206;21.018;2024-01-25T12:16:05;4.30;;;2.00;;
80247;SDS011;69560;52.206;21.018;2024-01-25T12:18:32;4.60;;;2.20;;
80247;SDS011;69560;52.206;21.018;2024-01-25T12:21:00;3.80;;;2.10;;
80247;SDS011;69560;52.206;21.018;2024-01-25T12:23:32;5.30;;;2.50;;
80247;SDS011;69560;52.206;21.018;2024-01-25T12:26:06;5.40;;;2.50;;
80247;SDS011;69560;52.206;21.018;2024-01-25T12:28:34;3.90;;;1.90;;
80247;SDS011;69560;52.206;21.018;2024-01-25T12:31:02;3.60;;;2.40;;
80247;SDS011;69560;52.206;21.018;2024-01-25T12:33:30;5.80;;;3.20;;
80247;SDS011;69560;52.206;21.018;2024-01-25T12:35:57;4.60;;;2.00;;
80247;SDS011;69560;52.206;21.018;2024-01-25T12:38:25;3.90;;;2.30;;
80247;SDS011;69560;52.206;21.018;2024-01-25T12:40:52;4.40;;;1.70;;
80247;SDS011;69560;52.206;21.018;2024-01-25T12:43:19;2.90;;;1.30;;
80247;SDS011;69560;52.206;21.018;2024-01-25T12:45:49;1.70;;;1.30;;
80247;SDS011;69560;52.206;21.018;2024-01-25T12:48:16;2.40;;;1.10;;
80247;SDS011;69560;52.206;21.018;2024-01-25T12:50:43;1.20;;;0.90;;
80247;SDS011;69560;52.206;21.018;2024-01-25T12:53:10;1.90;;;1.00;;
80247;SDS011;69560;52.206;21.018;2024-01-25T12:55:38;2.00;;;1.00;;
80247;SDS011;69560;52.206;21.018;2024-01-25T12:58:04;2.60;;;1.20;;
80247;SDS011;69560;52.206;21.018;2024-01-25T13:00:31;2.70;;;1.30;;
80247;SDS011;69560;52.206;21.018;2024-01-25T13:02:59;1.20;;;1.10;;
80247;SDS011;69560;52.206;21.018;2024-01-25T13:05:28;43.70;;;28.20;;
80247;SDS011;69560;52.206;21.018;2024-01-25T13:07:55;8.90;;;5.50;;
80247;SDS011;69560;52.206;21.018;2024-01-25T13:10:22;3.60;;;2.20;;
80247;SDS011;69560;52.206;21.018;2024-01-25T13:12:49;2.60;;;1.60;;
80247;SDS011;69560;52.206;21.018;2024-01-25T13:15:15;2.10;;;1.50;;
80247;SDS011;69560;52.206;21.018;2024-01-25T13:17:42;3.60;;;2.40;;
80247;SDS011;69560;52.206;21.018;2024-01-25T13:20:09;3.70;;;1.50;;
80247;SDS011;69560;52.206;21.018;2024-01-25T13:22:35;1.70;;;1.30;;
80247;SDS011;69560;52.206;21.018;2024-01-25T13:25:02;3.40;;;1.30;;
80247;SDS011;69560;52.206;21.018;2024-01-25T13:27:29;1.80;;;1.50;;
80247;SDS011;69560;52.206;21.018;2024-01-25T13:30:00;3.80;;;2.20;;
80247;SDS011;69560;52.206;21.018;2024-01-25T13:32:29;3.40;;;1.60;;
80247;SDS011;69560;52.206;21.018;2024-01-25T13:34:56;3.50;;;1.70;;
80247;SDS011;69560;52.206;21.018;2024-01-25T13:37:22;3.10;;;2.00;;
80247;SDS011;69560;52.206;21.018;2024-01-25T13:39:49;2.70;;;1.90;;
80247;SDS011;69560;52.206;21.018;2024-01-25T13:42:15;2.10;;;1.70;;
80247;SDS011;69560;52.206;21.018;2024-01-25T13:44:41;2.80;;;1.90;;
80247;SDS011;69560;52.206;21.018;2024-01-25T13:47:08;2.10;;;1.70;;
80247;SDS011;69560;52.206;21.018;2024-01-25T13:49:35;1.90;;;1.70;;
80247;SDS011;69560;52.206;21.018;2024-01-25T13:52:01;3.20;;;1.90;;
80247;SDS011;69560;52.206;21.018;2024-01-25T13:54:29;4.10;;;1.80;;
80247;SDS011;69560;52.206;21.018;2024-01-25T13:56:56;3.30;;;2.10;;
80247;SDS011;69560;52.206;21.018;2024-01-25T13:59:24;2.40;;;1.90;;
80247;SDS011;69560;52.206;21.018;2024-01-25T14:01:52;4.60;;;2.40;;
80247;SDS011;69560;52.206;21.018;2024-01-25T14:04:18;2.00;;;1.80;;
80247;SDS011;69560;52.206;21.018;2024-01-25T14:06:45;2.60;;;1.80;;
80247;SDS011;69560;52.206;21.018;2024-01-25T14:09:11;3.80;;;2.10;;
80247;SDS011;69560;52.206;21.018;2024-01-25T14:11:38;3.80;;;1.90;;
80247;SDS011;69560;52.206;21.018;2024-01-25T14:14:04;3.40;;;2.60;;
80247;SDS011;69560;52.206;21.018;2024-01-25T14:16:31;3.50;;;2.60;;
80247;SDS011;69560;52.206;21.018;2024-01-25T14:18:57;2.80;;;2.20;;
80247;SDS011;69560;52.206;21.018;2024-01-25T14:21:30;3.60;;;2.50;;
80247;SDS011;69560;52.206;21.018;2024-01-25T14:23:57;3.40;;;2.50;;
80247;SDS011;69560;52.206;21.018;2024-01-25T14:26:27;2.70;;;2.20;;
80247;SDS011;69560;52.206;21.018;2024-01-25T14:28:56;4.30;;;2.30;;
80247;SDS011;69560;52.206;21.018;2024-01-25T14:31:22;89.30;;;62.50;;
80247;SDS011;69560;52.206;21.018;2024-01-25T14:33:49;84.80;;;55.50;;